createdAt,value
2017-12-14T08:04:36.648Z,4.66
2017-12-14T08:05:17.154Z,4.67
2017-12-14T08:05:57.670Z,4.51
2017-12-14T08:06:38.210Z,4.48
2017-12-14T08:07:18.704Z,4.48
2017-12-14T08:07:59.227Z,4.52
2017-12-14T08:08:39.738Z,4.5
2017-12-14T08:09:20.258Z,4.51
2017-12-14T08:10:00.792Z,4.62
2017-12-14T08:10:41.275Z,4.52
2017-12-14T08:11:21.793Z,4.54
2017-12-14T08:12:02.306Z,4.59
2017-12-14T08:12:42.811Z,4.66
2017-12-14T08:13:23.344Z,4.62
2017-12-14T08:14:03.861Z,4.65
2017-12-14T08:14:44.384Z,4.62
2017-12-14T08:15:24.880Z,4.69
2017-12-14T08:16:05.406Z,4.67
2017-12-14T08:16:45.939Z,4.67
2017-12-14T08:17:26.434Z,4.7
2017-12-14T08:18:06.970Z,4.67
2017-12-14T08:18:47.484Z,4.73
2017-12-14T08:19:28.011Z,4.66
2017-12-14T08:20:08.547Z,4.72
2017-12-14T08:20:49.055Z,4.72
2017-12-14T08:21:29.580Z,4.75
2017-12-14T08:22:10.101Z,4.69
2017-12-14T08:22:50.622Z,4.75
2017-12-14T08:23:31.154Z,4.77
2017-12-14T08:24:11.675Z,4.72
2017-12-14T08:24:52.217Z,4.7
2017-12-14T08:25:32.738Z,4.72
2017-12-14T08:26:13.252Z,4.7
2017-12-14T08:26:53.761Z,4.73
2017-12-14T08:27:34.321Z,4.69
2017-12-14T08:28:14.850Z,4.77
2017-12-14T08:28:55.369Z,4.7
2017-12-14T08:29:35.878Z,4.69
2017-12-14T08:30:16.414Z,4.72
2017-12-14T08:30:56.941Z,4.67
2017-12-14T08:31:37.459Z,4.67
2017-12-14T08:32:17.989Z,4.72
2017-12-14T08:32:58.502Z,4.72
2017-12-14T08:33:39.024Z,4.7
2017-12-14T08:34:19.531Z,4.66
2017-12-14T08:35:00.071Z,4.72
2017-12-14T08:35:40.579Z,4.7
2017-12-14T08:36:21.106Z,4.7
2017-12-14T08:37:01.627Z,4.8
2017-12-14T08:37:42.157Z,4.84
2017-12-14T08:38:22.701Z,4.72
2017-12-14T08:39:03.174Z,4.84
2017-12-14T08:39:43.681Z,4.86
2017-12-14T08:40:24.208Z,4.94
2017-12-14T08:41:04.732Z,4.97
2017-12-14T08:41:45.316Z,4.96
2017-12-14T08:42:25.769Z,4.99
2017-12-14T08:43:06.278Z,4.99
2017-12-14T08:43:46.808Z,4.96
2017-12-14T08:44:27.322Z,5.02
2017-12-14T08:45:07.847Z,5.03
2017-12-14T08:45:48.371Z,5.03
2017-12-14T08:46:28.895Z,4.97
2017-12-14T08:47:09.418Z,4.92
2017-12-14T08:47:49.947Z,4.97
2017-12-14T08:48:30.482Z,4.96
2017-12-14T08:49:11.014Z,4.94
2017-12-14T08:49:51.529Z,4.96
2017-12-14T08:50:32.059Z,5.09
2017-12-14T08:51:12.581Z,5.09
2017-12-14T08:51:53.118Z,5.18
2017-12-14T08:52:33.674Z,5.13
2017-12-14T08:53:14.186Z,5.2
2017-12-14T08:53:54.675Z,5.15
2017-12-14T08:54:35.209Z,5.17
2017-12-14T08:55:15.726Z,5.12
2017-12-14T08:55:56.282Z,5.18
2017-12-14T08:56:36.830Z,5.22
2017-12-14T08:57:17.331Z,5.22
2017-12-14T08:57:57.861Z,5.28
2017-12-14T08:58:38.362Z,5.27
2017-12-14T08:59:18.893Z,5.22
2017-12-14T08:59:59.430Z,5.33
2017-12-14T09:00:39.932Z,5.31
2017-12-14T09:01:20.443Z,5.2
2017-12-14T09:02:00.961Z,5.27
2017-12-14T09:02:41.477Z,5.27
2017-12-14T09:03:22.008Z,5.31
2017-12-14T09:04:02.535Z,5.25
2017-12-14T09:04:43.067Z,5.31
2017-12-14T09:05:23.604Z,5.3
2017-12-14T09:06:04.140Z,5.21
2017-12-14T09:06:44.664Z,5.25
2017-12-14T09:07:25.203Z,5.2
2017-12-14T09:08:05.720Z,5.21
2017-12-14T09:08:46.246Z,5.22
2017-12-14T09:09:26.757Z,5.18
2017-12-14T09:10:07.304Z,5.21
2017-12-14T09:10:47.832Z,5.15
2017-12-14T09:11:28.372Z,5.2
2017-12-14T09:12:08.897Z,5.25
2017-12-14T09:12:49.434Z,5.13
2017-12-14T09:13:29.968Z,5.18
2017-12-14T09:14:10.497Z,5.13
2017-12-14T09:14:50.997Z,5.21
2017-12-14T09:15:31.523Z,5.18
2017-12-14T09:16:12.066Z,5.17
2017-12-14T09:16:52.582Z,5.13
2017-12-14T09:17:33.101Z,5.18
2017-12-14T09:18:13.618Z,5.2
2017-12-14T09:18:54.147Z,5.28
2017-12-14T09:19:34.686Z,5.28
2017-12-14T09:20:15.222Z,5.28
2017-12-14T09:20:55.749Z,5.27
2017-12-14T09:21:36.277Z,5.38
2017-12-14T09:22:16.795Z,5.33
2017-12-14T09:22:57.307Z,5.31
2017-12-14T09:23:37.885Z,5.45
2017-12-14T09:24:18.465Z,5.39
2017-12-14T09:24:58.986Z,5.46
2017-12-14T09:25:39.530Z,5.45
2017-12-14T09:26:20.055Z,5.49
2017-12-14T09:27:00.564Z,5.48
2017-12-14T09:27:41.121Z,5.46
2017-12-14T09:28:21.643Z,5.48
2017-12-14T09:29:02.173Z,5.54
2017-12-14T09:29:42.685Z,5.49
2017-12-14T09:30:23.219Z,5.6
2017-12-14T09:31:03.743Z,5.6
2017-12-14T09:31:44.273Z,5.65
2017-12-14T09:32:24.780Z,5.74
2017-12-14T09:33:05.297Z,5.68
2017-12-14T09:33:45.832Z,5.65
2017-12-14T09:34:26.357Z,5.68
2017-12-14T09:35:06.863Z,5.74
2017-12-14T09:35:47.397Z,5.82
2017-12-14T09:36:27.940Z,5.86
2017-12-14T09:37:08.434Z,5.85
2017-12-14T09:37:48.948Z,5.96
2017-12-14T09:38:29.468Z,6.03
2017-12-14T09:39:09.994Z,6.03
2017-12-14T09:39:50.520Z,6.03
2017-12-14T09:40:31.050Z,6.04
2017-12-14T09:41:11.581Z,6
2017-12-14T09:41:52.102Z,6
2017-12-14T09:42:32.620Z,6.01
2017-12-14T09:43:13.147Z,6.01
2017-12-14T09:43:53.676Z,6
2017-12-14T09:44:34.185Z,5.99
2017-12-14T09:45:14.731Z,5.94
2017-12-14T09:45:55.246Z,5.99
2017-12-14T09:46:35.763Z,5.94
2017-12-14T09:47:16.293Z,6
2017-12-14T09:47:56.803Z,5.94
2017-12-14T09:48:37.338Z,5.94
2017-12-14T09:49:17.870Z,6
2017-12-14T09:49:58.456Z,6.01
2017-12-14T09:50:38.987Z,5.99
2017-12-14T09:51:19.522Z,6
2017-12-14T09:52:00.099Z,5.97
2017-12-14T09:52:40.628Z,5.93
2017-12-14T09:53:21.150Z,5.94
2017-12-14T09:54:01.709Z,5.94
2017-12-14T09:54:42.206Z,5.91
2017-12-14T09:55:22.760Z,5.97
2017-12-14T09:56:03.298Z,5.93
2017-12-14T09:56:43.843Z,5.96
2017-12-14T09:57:24.363Z,5.89
2017-12-14T09:58:04.926Z,5.83
2017-12-14T09:58:45.433Z,5.97
2017-12-14T09:59:25.962Z,5.85
2017-12-14T10:00:06.510Z,5.83
2017-12-14T10:00:47.031Z,5.85
2017-12-14T10:01:27.538Z,5.85
2017-12-14T10:02:08.058Z,5.85
2017-12-14T10:02:48.571Z,5.89
2017-12-14T10:03:29.097Z,5.74
2017-12-14T10:04:09.652Z,5.78
2017-12-14T10:04:50.157Z,5.72
2017-12-14T10:05:30.672Z,5.74
2017-12-14T10:06:11.229Z,5.76
2017-12-14T10:06:51.750Z,5.81
2017-12-14T10:07:32.280Z,5.75
2017-12-14T10:08:12.814Z,5.78
2017-12-14T10:08:53.339Z,5.71
2017-12-14T10:09:33.864Z,5.75
2017-12-14T10:10:14.417Z,5.75
2017-12-14T10:10:54.946Z,5.74
2017-12-14T10:11:35.461Z,5.78
2017-12-14T10:12:16.010Z,5.86
2017-12-14T10:12:56.538Z,5.81
2017-12-14T10:13:37.066Z,5.82
2017-12-14T10:14:17.581Z,5.78
2017-12-14T10:14:58.123Z,5.79
2017-12-14T10:15:38.658Z,5.79
2017-12-14T10:16:19.208Z,5.85
2017-12-14T10:16:59.718Z,5.78
2017-12-14T10:17:40.247Z,5.82
2017-12-14T10:18:20.766Z,5.83
2017-12-14T10:19:01.307Z,5.81
2017-12-14T10:19:41.844Z,5.89
2017-12-14T10:20:22.387Z,5.89
2017-12-14T10:21:02.926Z,5.86
2017-12-14T10:21:43.452Z,5.81
2017-12-14T10:22:23.981Z,5.82
2017-12-14T10:23:04.503Z,5.86
2017-12-14T10:23:45.025Z,5.81
2017-12-14T10:24:25.508Z,5.74
2017-12-14T10:25:06.258Z,5.82
2017-12-14T10:25:46.836Z,5.72
2017-12-14T10:26:28.396Z,5.78
2017-12-14T10:27:09.084Z,5.74
2017-12-14T10:27:49.609Z,5.68
2017-12-14T10:28:30.134Z,5.75
2017-12-14T10:29:10.658Z,5.65
2017-12-14T10:29:51.227Z,5.67
2017-12-14T10:30:31.686Z,5.65
2017-12-14T10:31:12.210Z,5.64
2017-12-14T10:31:52.715Z,5.58
2017-12-14T10:32:33.233Z,5.64
2017-12-14T10:33:13.740Z,5.65
2017-12-14T10:33:54.274Z,5.58
2017-12-14T10:34:34.786Z,5.67
2017-12-14T10:35:15.297Z,5.63
2017-12-14T10:35:55.821Z,5.6
2017-12-14T10:36:36.351Z,5.64
2017-12-14T10:37:16.872Z,5.61
2017-12-14T10:37:57.427Z,5.49
2017-12-14T10:38:37.920Z,5.53
2017-12-14T10:39:18.429Z,5.63
2017-12-14T10:39:58.957Z,5.53
2017-12-14T10:40:39.487Z,5.56
2017-12-14T10:41:20.021Z,5.56
2017-12-14T10:42:00.554Z,5.49
2017-12-14T10:42:41.096Z,5.45
2017-12-14T10:43:21.631Z,5.39
2017-12-14T10:44:02.162Z,5.35
2017-12-14T10:44:42.678Z,5.39
2017-12-14T10:45:23.208Z,5.28
2017-12-14T10:46:03.732Z,5.25
2017-12-14T10:46:44.262Z,5.13
2017-12-14T10:47:24.769Z,5.12
2017-12-14T10:48:05.299Z,5.17
2017-12-14T10:48:45.918Z,5.07
2017-12-14T10:49:26.383Z,4.97
2017-12-14T10:50:06.887Z,4.92
2017-12-14T10:50:47.401Z,4.91
2017-12-14T10:51:27.909Z,4.89
2017-12-14T10:52:08.443Z,4.77
2017-12-14T10:52:48.964Z,4.7
2017-12-14T10:53:29.499Z,4.75
2017-12-14T10:54:10.007Z,4.69
2017-12-14T10:54:50.546Z,4.7
2017-12-14T10:55:31.054Z,4.66
2017-12-14T10:56:11.586Z,4.6
2017-12-14T10:56:52.101Z,4.65
2017-12-14T10:57:32.621Z,4.67
2017-12-14T10:58:13.148Z,4.6
2017-12-14T10:58:53.689Z,4.58
2017-12-14T10:59:34.203Z,4.59
2017-12-14T11:00:14.733Z,4.55
2017-12-14T11:00:55.263Z,4.58
2017-12-14T11:01:35.799Z,4.47
2017-12-14T11:02:16.322Z,4.51
2017-12-14T11:02:56.850Z,4.58
2017-12-14T11:03:37.377Z,4.55
2017-12-14T11:04:17.914Z,4.51
2017-12-14T11:04:58.436Z,4.52
2017-12-14T11:05:38.965Z,4.52
2017-12-14T11:06:19.487Z,4.54
2017-12-14T11:06:59.996Z,4.59
2017-12-14T11:07:40.518Z,4.52
2017-12-14T11:08:21.012Z,4.62
2017-12-14T11:09:01.531Z,4.6
2017-12-14T11:09:42.042Z,4.62
2017-12-14T11:10:22.560Z,4.6
2017-12-14T11:11:03.074Z,4.6
2017-12-14T11:11:43.599Z,4.55
2017-12-14T11:12:24.129Z,4.55
2017-12-14T11:13:04.662Z,4.59
2017-12-14T11:13:45.164Z,4.52
2017-12-14T11:14:25.682Z,4.6
2017-12-14T11:15:06.193Z,4.63
2017-12-14T11:15:46.725Z,4.67
2017-12-14T11:16:27.239Z,4.67
2017-12-14T11:17:07.820Z,4.66
2017-12-14T11:17:48.390Z,4.69
2017-12-14T11:18:28.914Z,4.66
2017-12-14T11:19:09.414Z,4.67
2017-12-14T11:19:49.927Z,4.63
2017-12-14T11:20:30.462Z,4.62
2017-12-14T11:21:11.014Z,4.63
2017-12-14T11:21:51.528Z,4.69
2017-12-14T11:22:32.037Z,4.6
2017-12-14T11:23:12.564Z,4.67
2017-12-14T11:23:53.106Z,4.7
2017-12-14T11:24:33.614Z,4.67
2017-12-14T11:25:14.159Z,4.67
2017-12-14T11:25:54.682Z,4.72
2017-12-14T11:26:35.208Z,4.77
2017-12-14T11:27:15.736Z,4.69
2017-12-14T11:27:56.268Z,4.82
2017-12-14T11:28:36.775Z,4.75
2017-12-14T11:29:17.302Z,4.75
2017-12-14T11:29:57.828Z,4.78
2017-12-14T11:30:38.357Z,4.84
2017-12-14T11:31:18.869Z,4.78
2017-12-14T11:31:59.415Z,4.78
2017-12-14T11:32:39.946Z,4.84
2017-12-14T11:33:20.460Z,4.82
2017-12-14T11:34:00.953Z,4.85
2017-12-14T11:34:41.451Z,4.82
2017-12-14T11:35:21.969Z,4.78
2017-12-14T11:36:02.474Z,4.86
2017-12-14T11:36:42.977Z,4.84
2017-12-14T11:37:23.491Z,4.75
2017-12-14T11:38:04.013Z,4.78
2017-12-14T11:38:44.552Z,4.75
2017-12-14T11:39:25.078Z,4.77
2017-12-14T11:40:05.611Z,4.88
2017-12-14T11:40:46.143Z,4.86
2017-12-14T11:41:26.638Z,4.82
2017-12-14T11:42:07.164Z,4.84
2017-12-14T11:42:47.683Z,4.86
2017-12-14T11:43:28.200Z,4.92
2017-12-14T11:44:08.713Z,4.89
2017-12-14T11:44:49.602Z,4.91
2017-12-14T11:45:30.120Z,4.91
2017-12-14T11:46:10.640Z,4.94
2017-12-14T11:46:51.168Z,4.97
2017-12-14T11:47:31.692Z,4.97
2017-12-14T11:48:12.224Z,4.97
2017-12-14T11:48:52.741Z,4.96
2017-12-14T11:49:33.284Z,4.94
2017-12-14T11:50:13.803Z,4.92
2017-12-14T11:50:54.329Z,5.03
2017-12-14T11:51:34.845Z,4.97
2017-12-14T11:52:15.370Z,4.97
2017-12-14T11:52:55.897Z,4.94
2017-12-14T11:53:36.424Z,4.94
2017-12-14T11:54:16.943Z,4.92
2017-12-14T11:54:57.476Z,5.03
2017-12-14T11:55:37.998Z,5.02
2017-12-14T11:56:18.497Z,4.99
2017-12-14T11:56:59.036Z,4.97
2017-12-14T11:57:39.542Z,4.91
2017-12-14T11:58:20.056Z,4.99
2017-12-14T11:59:00.582Z,4.96
2017-12-14T11:59:41.102Z,4.94
2017-12-14T12:00:21.616Z,5.04
2017-12-14T12:01:02.157Z,5.12
2017-12-14T12:01:42.669Z,5.1
2017-12-14T12:02:23.191Z,5.1
2017-12-14T12:03:03.707Z,5.13
2017-12-14T12:03:44.214Z,5.1
2017-12-14T12:04:24.762Z,5.2
2017-12-14T12:05:05.290Z,5.12
2017-12-14T12:05:45.844Z,5.15
2017-12-14T12:06:26.384Z,5.17
2017-12-14T12:07:06.961Z,5.15
2017-12-14T12:07:47.444Z,5.18
2017-12-14T12:08:27.962Z,5.12
2017-12-14T12:09:08.488Z,5.1
2017-12-14T12:09:49.034Z,5.15
2017-12-14T12:10:29.570Z,5.2
2017-12-14T12:11:10.099Z,5.27
2017-12-14T12:11:50.613Z,5.12
2017-12-14T12:12:31.126Z,5.2
2017-12-14T12:13:11.652Z,5.21
2017-12-14T12:13:52.201Z,5.2
2017-12-14T12:14:32.732Z,5.24
2017-12-14T12:15:13.237Z,5.15
2017-12-14T12:15:53.748Z,5.24
2017-12-14T12:16:34.264Z,5.21
2017-12-14T12:17:14.790Z,5.22
2017-12-14T12:17:55.315Z,5.22
2017-12-14T12:18:35.836Z,5.3
2017-12-14T12:19:16.365Z,5.2
2017-12-14T12:19:56.886Z,5.3
2017-12-14T12:20:37.402Z,5.27
2017-12-14T12:21:17.914Z,5.27
2017-12-14T12:21:58.453Z,5.31
2017-12-14T12:22:38.979Z,5.25
2017-12-14T12:23:19.510Z,5.21
2017-12-14T12:24:00.053Z,5.28
2017-12-14T12:24:40.624Z,5.24
2017-12-14T12:25:21.091Z,5.22
2017-12-14T12:26:01.620Z,5.31
2017-12-14T12:26:42.155Z,5.22
2017-12-14T12:27:22.672Z,5.31
2017-12-14T12:28:03.223Z,5.28
2017-12-14T12:28:43.758Z,5.28
2017-12-14T12:29:24.280Z,5.33
2017-12-14T12:30:04.814Z,5.35
2017-12-14T12:30:45.329Z,5.38
2017-12-14T12:31:25.860Z,5.35
2017-12-14T12:32:06.386Z,5.36
2017-12-14T12:32:46.893Z,5.38
2017-12-14T12:33:27.399Z,5.36
2017-12-14T12:34:07.922Z,5.31
2017-12-14T12:34:48.420Z,5.39
2017-12-14T12:35:28.913Z,5.36
2017-12-14T12:36:09.411Z,5.36
2017-12-14T12:36:49.918Z,5.33
2017-12-14T12:37:30.438Z,5.3
2017-12-14T12:38:10.961Z,5.38
2017-12-14T12:38:51.466Z,5.36
2017-12-14T12:39:31.969Z,5.36
2017-12-14T12:40:12.459Z,5.35
2017-12-14T12:40:52.978Z,5.4
2017-12-14T12:41:33.496Z,5.36
2017-12-14T12:42:14.014Z,5.35
2017-12-14T12:42:54.530Z,5.33
2017-12-14T12:43:35.047Z,5.35
2017-12-14T12:44:15.595Z,5.39
2017-12-14T12:44:56.081Z,5.4
2017-12-14T12:45:36.606Z,5.35
2017-12-14T12:46:17.156Z,5.3
2017-12-14T12:46:57.686Z,5.36
2017-12-14T12:47:38.216Z,5.36
2017-12-14T12:48:18.742Z,5.33
2017-12-14T12:48:59.254Z,5.39
2017-12-14T12:49:39.764Z,5.33
2017-12-14T12:50:21.206Z,5.31
2017-12-14T12:51:01.838Z,5.33
2017-12-14T12:51:42.436Z,5.33
2017-12-14T12:52:22.994Z,5.31
2017-12-14T12:53:03.653Z,5.3
2017-12-14T12:53:44.340Z,5.35
2017-12-14T12:54:24.841Z,5.4
2017-12-14T12:55:05.364Z,5.35
2017-12-14T12:55:45.901Z,5.35
2017-12-14T12:56:26.392Z,5.33
2017-12-14T12:57:06.934Z,5.39
2017-12-14T12:57:47.450Z,5.33
2017-12-14T12:58:27.962Z,5.33
2017-12-14T12:59:08.479Z,5.38
2017-12-14T12:59:48.997Z,5.31
2017-12-14T13:00:29.512Z,5.3
2017-12-14T13:01:10.028Z,5.28
2017-12-14T13:01:50.538Z,5.33
2017-12-14T13:02:31.049Z,5.33
2017-12-14T13:03:11.567Z,5.46
2017-12-14T13:03:52.095Z,5.43
2017-12-14T13:04:32.633Z,5.38
2017-12-14T13:05:13.193Z,5.39
2017-12-14T13:05:53.723Z,5.4
2017-12-14T13:06:34.252Z,5.42
2017-12-14T13:07:14.783Z,5.43
2017-12-14T13:07:55.327Z,5.48
2017-12-14T13:08:35.853Z,5.49
2017-12-14T13:09:16.613Z,5.4
2017-12-14T13:09:57.347Z,5.48
2017-12-14T13:10:38.033Z,5.46
2017-12-14T13:11:18.626Z,5.43
2017-12-14T13:11:59.133Z,5.45
2017-12-14T13:12:39.726Z,5.46
2017-12-14T13:13:21.079Z,5.43
2017-12-14T13:14:01.934Z,5.39
2017-12-14T13:14:42.802Z,5.45
2017-12-14T13:15:36.061Z,5.49
2017-12-14T13:16:18.155Z,5.46
2017-12-14T13:17:00.507Z,5.45
2017-12-14T13:17:42.361Z,5.48
2017-12-14T13:18:21.872Z,5.4
2017-12-14T13:19:03.536Z,5.48
2017-12-14T13:19:44.059Z,5.48
2017-12-14T13:20:24.585Z,5.43
2017-12-14T13:21:05.109Z,5.42
2017-12-14T13:21:45.780Z,5.43
2017-12-14T13:22:27.885Z,5.42
2017-12-14T13:23:08.411Z,5.48
2017-12-14T13:23:48.947Z,5.45
2017-12-14T13:24:29.480Z,5.51
2017-12-14T13:25:10.011Z,5.45
2017-12-14T13:25:50.540Z,5.48
2017-12-14T13:26:31.089Z,5.48
2017-12-14T13:28:45.768Z,5.56
2017-12-14T13:29:26.468Z,5.46
2017-12-14T13:30:07.213Z,5.45
2017-12-14T13:30:47.667Z,5.51
2017-12-14T13:31:28.237Z,5.48
2017-12-14T13:32:08.843Z,5.57
2017-12-14T13:32:49.335Z,5.51
2017-12-14T13:33:29.856Z,5.56
2017-12-14T13:34:10.385Z,5.6
2017-12-14T13:34:50.930Z,5.63
2017-12-14T13:35:31.513Z,5.58
2017-12-14T13:36:12.411Z,5.6
2017-12-14T13:36:53.355Z,5.49
2017-12-14T13:37:35.973Z,5.57
2017-12-14T13:38:16.722Z,5.49
2017-12-14T13:38:57.482Z,5.56
2017-12-14T13:39:40.815Z,5.6
2017-12-14T13:41:40.212Z,5.6
2017-12-14T13:42:21.466Z,5.63
2017-12-14T13:43:01.479Z,5.65
2017-12-14T13:43:41.989Z,5.72
2017-12-14T13:44:22.614Z,5.67
2017-12-14T13:45:03.405Z,5.65
2017-12-14T13:45:44.008Z,5.64
2017-12-14T13:46:24.589Z,5.64
2017-12-14T13:47:05.398Z,5.64
2017-12-14T13:47:45.863Z,5.72
2017-12-14T13:48:26.932Z,5.63
2017-12-14T13:49:07.534Z,5.71
2017-12-14T13:49:48.114Z,5.67
2017-12-14T13:50:29.548Z,5.63
2017-12-14T13:51:09.673Z,5.64
2017-12-14T13:51:50.161Z,5.6
2017-12-14T13:52:30.797Z,5.68
2017-12-14T13:53:11.542Z,5.64
2017-12-14T13:53:52.165Z,5.67
2017-12-14T13:54:33.289Z,5.75
2017-12-14T13:55:13.881Z,5.64
2017-12-14T13:55:54.469Z,5.67
2017-12-14T13:56:34.979Z,5.63
2017-12-14T13:57:15.515Z,5.68
2017-12-14T13:57:56.272Z,5.6
2017-12-14T13:58:36.763Z,5.74
2017-12-14T13:59:18.461Z,5.71
2017-12-14T13:59:59.114Z,5.61
2017-12-14T14:00:39.690Z,5.71
2017-12-14T14:01:25.750Z,5.63
2017-12-14T14:02:06.267Z,5.65
2017-12-14T14:02:46.822Z,5.63
2017-12-14T14:03:27.675Z,5.65
2017-12-14T14:04:09.138Z,5.61
2017-12-14T14:04:50.432Z,5.74
2017-12-14T14:05:34.483Z,5.64
2017-12-14T14:06:29.125Z,5.68
2017-12-14T14:07:11.086Z,5.68
2017-12-14T14:09:04.299Z,5.61
2017-12-14T14:09:44.746Z,5.61
2017-12-14T14:10:25.879Z,5.63
2017-12-14T14:11:06.463Z,5.6
2017-12-14T14:11:47.164Z,5.6
2017-12-14T14:12:27.583Z,5.63
2017-12-14T14:13:08.306Z,5.6
2017-12-14T14:13:48.822Z,5.6
2017-12-14T14:14:29.334Z,5.57
2017-12-14T14:15:09.941Z,5.54
2017-12-14T14:15:50.576Z,5.54
2017-12-14T14:16:31.441Z,5.54
2017-12-14T14:18:24.916Z,5.53
2017-12-14T14:19:05.501Z,5.53
2017-12-14T14:19:45.938Z,5.45
2017-12-14T14:20:26.894Z,5.53
2017-12-14T14:21:09.272Z,5.46
2017-12-14T14:21:49.805Z,5.42
2017-12-14T14:22:30.654Z,5.46
2017-12-14T14:23:11.257Z,5.39
2017-12-14T14:23:52.059Z,5.46
2017-12-14T14:24:33.066Z,5.39
2017-12-14T14:25:13.717Z,5.39
2017-12-14T14:25:54.145Z,5.3
2017-12-14T14:26:36.296Z,5.36
2017-12-14T14:27:16.833Z,5.39
2017-12-14T14:27:57.367Z,5.33
2017-12-14T14:28:37.895Z,5.39
2017-12-14T14:29:18.422Z,5.33
2017-12-14T14:29:58.948Z,5.24
2017-12-14T14:30:39.480Z,5.28
2017-12-14T14:31:20.019Z,5.35
2017-12-14T14:32:00.550Z,5.25
2017-12-14T14:32:41.078Z,5.31
2017-12-14T14:33:21.597Z,5.28
2017-12-14T14:34:02.114Z,5.27
2017-12-14T14:34:42.661Z,5.2
2017-12-14T14:35:23.181Z,5.24
2017-12-14T14:36:03.719Z,5.17
2017-12-14T14:36:44.254Z,5.15
2017-12-14T14:37:24.791Z,5.17
2017-12-14T14:38:05.315Z,5.22
2017-12-14T14:38:45.837Z,5.13
2017-12-14T14:39:26.372Z,5.17
2017-12-14T14:40:06.900Z,5.18
2017-12-14T14:40:47.429Z,5.13
2017-12-14T14:41:27.958Z,5.17
2017-12-14T14:42:08.488Z,5.12
2017-12-14T14:42:49.018Z,5.22
2017-12-14T14:43:29.563Z,5.15
2017-12-14T14:44:10.067Z,5.12
2017-12-14T14:44:50.597Z,5.13
2017-12-14T14:45:31.128Z,5.06
2017-12-14T14:46:11.656Z,5.2
2017-12-14T14:46:52.338Z,5.13
2017-12-14T14:47:33.720Z,5.07
2017-12-14T14:48:18.172Z,5.18
2017-12-14T14:48:58.702Z,5.07
2017-12-14T14:49:39.170Z,5.07
2017-12-14T14:50:19.704Z,5.12
2017-12-14T14:51:00.240Z,5.07
2017-12-14T14:51:40.792Z,5.09
2017-12-14T14:52:22.088Z,5.07
2017-12-14T14:53:03.971Z,5.09
2017-12-14T14:53:44.538Z,5.07
2017-12-14T14:54:25.035Z,5.03
2017-12-14T14:55:05.555Z,4.94
2017-12-14T14:55:46.043Z,5.02
2017-12-14T14:56:27.366Z,5.02
2017-12-14T14:57:07.878Z,4.97
2017-12-14T14:57:49.389Z,4.91
2017-12-14T14:58:29.842Z,4.97
2017-12-14T14:59:10.363Z,4.97
2017-12-14T14:59:51.964Z,5
2017-12-14T15:00:32.064Z,4.97
2017-12-14T15:01:15.187Z,4.96
2017-12-14T15:01:57.612Z,4.96
2017-12-14T15:02:38.228Z,4.97
2017-12-14T15:03:18.652Z,4.96
2017-12-14T15:03:59.170Z,5
2017-12-14T15:04:39.700Z,5
2017-12-14T15:05:20.217Z,5
2017-12-14T15:06:00.741Z,5.02
2017-12-14T15:06:41.266Z,5
2017-12-14T15:07:21.804Z,5.06
2017-12-14T15:08:04.238Z,5.07
2017-12-14T15:08:44.754Z,5.04
2017-12-14T15:09:25.264Z,5.02
2017-12-14T15:10:05.795Z,5.06
2017-12-14T15:10:46.351Z,5.1
2017-12-14T15:11:26.885Z,5.12
2017-12-14T15:12:07.402Z,5.1
2017-12-14T15:12:47.936Z,5.1
2017-12-14T15:13:28.465Z,5.09
2017-12-14T15:14:08.946Z,5.12
2017-12-14T15:14:49.463Z,5.07
2017-12-14T15:15:30.044Z,5.12
2017-12-14T15:16:10.603Z,5.09
2017-12-14T15:16:51.129Z,5.1
2017-12-14T15:17:31.697Z,5.03
2017-12-14T15:18:12.227Z,5.13
2017-12-14T15:18:52.745Z,5.15
2017-12-14T15:19:33.280Z,5.1
2017-12-14T15:20:13.823Z,5.07
2017-12-14T15:20:54.351Z,4.94
2017-12-14T15:21:34.910Z,4.97
2017-12-14T15:22:15.445Z,4.91
2017-12-14T15:22:55.969Z,4.86
2017-12-14T15:23:36.484Z,4.85
2017-12-14T15:24:17.207Z,4.75
2017-12-14T15:24:57.726Z,4.67
2017-12-14T15:25:38.251Z,4.67
2017-12-14T15:26:18.778Z,4.67
2017-12-14T15:26:59.314Z,4.62
2017-12-14T15:27:39.834Z,4.62
2017-12-14T15:28:20.369Z,4.6
2017-12-14T15:29:00.900Z,4.59
2017-12-14T15:29:41.428Z,4.54
2017-12-14T15:30:21.942Z,4.55
2017-12-14T15:31:02.462Z,4.63
2017-12-14T15:31:42.995Z,4.54
2017-12-14T15:32:23.514Z,4.52
2017-12-14T15:33:04.031Z,4.52
2017-12-14T15:33:44.593Z,4.51
2017-12-14T15:34:25.126Z,4.5
2017-12-14T15:35:05.659Z,4.44
2017-12-14T15:35:46.191Z,4.42
2017-12-14T15:36:26.728Z,4.42
2017-12-14T15:37:07.251Z,4.34
2017-12-14T15:37:47.779Z,4.41
2017-12-14T15:38:28.319Z,4.36
2017-12-14T15:39:08.862Z,4.34
2017-12-14T15:39:49.386Z,4.34
2017-12-14T15:40:29.910Z,4.36
2017-12-14T15:41:10.426Z,4.29
2017-12-14T15:41:50.946Z,4.3
2017-12-14T15:42:31.452Z,4.32
2017-12-14T15:43:11.986Z,4.34
2017-12-14T15:43:52.524Z,4.32
2017-12-14T15:44:33.073Z,4.33
2017-12-14T15:45:13.600Z,4.33
2017-12-14T15:45:54.138Z,4.33
2017-12-14T15:46:34.669Z,4.36
2017-12-14T15:47:15.191Z,4.32
2017-12-14T15:48:36.251Z,4.42
2017-12-14T15:49:16.779Z,4.44
2017-12-14T15:49:57.305Z,4.36
2017-12-14T15:50:37.852Z,4.41
2017-12-14T15:51:18.378Z,4.45
2017-12-14T15:51:58.909Z,4.37
2017-12-14T15:52:39.452Z,4.41
2017-12-14T15:53:19.985Z,4.41
2017-12-14T15:54:00.549Z,4.47
2017-12-14T15:54:41.114Z,4.37
2017-12-14T15:55:21.596Z,4.37
2017-12-14T15:56:02.137Z,4.41
2017-12-14T15:56:42.653Z,4.41
2017-12-14T15:57:23.181Z,4.42
2017-12-14T15:58:03.700Z,4.36
2017-12-14T15:58:44.244Z,4.4
2017-12-14T15:59:24.737Z,4.44
2017-12-14T16:00:05.275Z,4.45
2017-12-14T16:00:45.795Z,4.36
2017-12-14T16:01:26.315Z,4.37
2017-12-14T16:02:06.838Z,4.37
2017-12-14T16:02:47.380Z,4.33
2017-12-14T16:03:27.929Z,4.32
2017-12-14T16:04:08.477Z,4.22
2017-12-14T16:04:49.012Z,4.29
2017-12-14T16:05:29.528Z,4.23
2017-12-14T16:06:10.063Z,4.18
2017-12-14T16:06:50.590Z,4.27
2017-12-14T16:07:31.116Z,4.3
2017-12-14T16:08:11.635Z,4.26
2017-12-14T16:08:52.203Z,4.23
2017-12-14T16:09:32.738Z,4.22
2017-12-14T16:10:13.270Z,4.2
2017-12-14T16:10:53.830Z,4.24
2017-12-14T16:11:34.382Z,4.2
2017-12-14T16:12:14.890Z,4.32
2017-12-14T16:12:55.406Z,4.26
2017-12-14T16:13:35.946Z,4.24
2017-12-14T16:14:16.473Z,4.34
2017-12-14T16:14:56.998Z,4.24
2017-12-14T16:15:37.520Z,4.3
2017-12-14T16:16:18.050Z,4.24
2017-12-14T16:16:58.603Z,4.22
2017-12-14T16:17:39.134Z,4.3
2017-12-14T16:18:19.670Z,4.22
2017-12-14T16:19:00.200Z,4.26
2017-12-14T16:19:40.732Z,4.27
2017-12-14T16:20:21.247Z,4.32
2017-12-14T16:21:01.778Z,4.2
2017-12-14T16:21:42.300Z,4.12
2017-12-14T16:22:22.824Z,4.23
2017-12-14T16:23:03.350Z,4.23
2017-12-14T16:23:43.892Z,4.26
2017-12-14T16:24:24.400Z,4.23
2017-12-14T16:25:04.937Z,4.23
2017-12-14T16:25:45.448Z,4.14
2017-12-14T16:26:25.988Z,4.23
2017-12-14T16:27:06.515Z,4.24
2017-12-14T16:27:47.050Z,4.29
2017-12-14T16:28:27.578Z,4.23
2017-12-14T16:29:08.157Z,4.22
2017-12-14T16:29:48.724Z,4.2
2017-12-14T16:30:29.273Z,4.24
2017-12-14T16:31:09.791Z,4.27
2017-12-14T16:31:50.314Z,4.26
2017-12-14T16:32:30.843Z,4.24
2017-12-14T16:33:11.377Z,4.24
2017-12-14T16:33:51.918Z,4.26
2017-12-14T16:34:32.439Z,4.23
2017-12-14T16:35:12.966Z,4.26
2017-12-14T16:35:53.499Z,4.23
2017-12-14T16:36:34.057Z,4.22
2017-12-14T16:37:14.584Z,4.24
2017-12-14T16:37:55.126Z,4.24
2017-12-14T16:38:35.639Z,4.24
2017-12-14T16:39:16.170Z,4.29
2017-12-14T16:39:56.705Z,4.18
2017-12-14T16:40:37.232Z,4.12
2017-12-14T16:41:17.770Z,4.23
2017-12-14T16:41:58.280Z,4.2
2017-12-14T16:42:38.843Z,4.27
2017-12-14T16:43:19.374Z,4.27
2017-12-14T16:43:59.905Z,4.2
2017-12-14T16:44:40.694Z,4.26
2017-12-14T16:45:21.242Z,4.26
2017-12-14T16:46:01.769Z,4.26
2017-12-14T16:46:42.309Z,4.36
2017-12-14T16:47:22.838Z,4.18
2017-12-14T16:48:03.384Z,4.34
2017-12-14T16:48:43.916Z,4.32
2017-12-14T16:49:24.449Z,4.34
2017-12-14T16:50:04.975Z,4.4
2017-12-14T16:50:45.505Z,4.32
2017-12-14T16:51:26.045Z,4.32
2017-12-14T16:52:06.563Z,4.32
2017-12-14T16:52:47.086Z,4.34
2017-12-14T16:53:27.615Z,4.33
2017-12-14T16:54:08.148Z,4.36
2017-12-14T16:54:48.676Z,4.36
2017-12-14T16:55:29.206Z,4.33
2017-12-14T16:56:09.738Z,4.36
2017-12-14T16:56:50.283Z,4.33
2017-12-14T16:57:30.821Z,4.36
2017-12-14T16:58:11.350Z,4.34
2017-12-14T16:58:51.887Z,4.34
2017-12-14T16:59:32.425Z,4.34
2017-12-14T17:00:12.975Z,4.33
2017-12-14T17:00:53.519Z,4.36
2017-12-14T17:01:34.031Z,4.41
2017-12-14T17:02:14.550Z,4.4
2017-12-14T17:02:55.070Z,4.37
2017-12-14T17:03:35.604Z,4.37
2017-12-14T17:04:16.133Z,4.44
2017-12-14T17:04:56.666Z,4.34
2017-12-14T17:05:37.223Z,4.37
2017-12-14T17:06:17.756Z,4.4
2017-12-14T17:06:58.284Z,4.41
2017-12-14T17:07:38.812Z,4.4
2017-12-14T17:08:19.348Z,4.34
2017-12-14T17:08:59.868Z,4.41
2017-12-14T17:09:40.394Z,4.33
2017-12-14T17:10:20.922Z,4.36
2017-12-14T17:11:01.448Z,4.4
2017-12-14T17:11:42.010Z,4.5
2017-12-14T17:12:22.541Z,4.51
2017-12-14T17:13:03.066Z,4.44
2017-12-14T17:13:43.586Z,4.52